Moffett, OK (74946)

3:51 PM CST on February 11, 2016 (GMT -0600)
Bailey Hill | | Change Station
CLOSE
Current Station
Personal Weather Station
Location: Fort Smith, AR
Elevation: 564 ft
Nearby Weather Stations

Elev 564 ft 35.36 °N, 94.42 °W | Updated 24 seconds ago

Clear
Clear
66.4 °F
Feels Like 66.4 °F
N
1.7
Wind Variable Wind from NE

Today
High -- | Low -- °F
--% Chance of Precip.
Yesterday
High -- | Low -- °F
Precip. -- in
Pressure 30.10 in
Visibility 10.0 miles
Clouds Clear
Dew Point 32 °F
Humidity 28%
Rainfall 0.00 in
Snow Depth Not available.
7:08 AM 5:55 PM
Waxing Crescent, 14% visible
METAR KFSM 112053Z 12005KT 10SM CLR 17/M04 A3010 RMK AO2 SLP193 T01721039 58017
Pressure 30.10 in
Visibility 10.0 miles
Clouds Clear
Dew Point 32 °F
Humidity 28%
Rainfall 0.00 in
Snow Depth Not available.
7:08 AM 5:55 PM
Waxing Crescent, 14% visible
METAR KFSM 112053Z 12005KT 10SM CLR 17/M04 A3010 RMK AO2 SLP193 T01721039 58017

10-Day Weather Forecast

Almanac

Astronomy

Feb. 11, 2016 Rise Set
Actual Time
Civil Twilight
Nautical Twilight
Astronomical Twilight
Moon
Length of Visible Light
Length of Day
Tomorrow will be .
, % of the Moon is Illuminated

Today's Extremes

State Highs State Lows

Community

WunderPhotos

Upload Photos

1,892,165 photos uploaded!

WunderBlog® & News

Nearby

Air Quality

  Air Quality AQ Index Pollutant
Not available.

Snow Depth

Station Depth Elevation

Earthquake Activity

City Distance Mag. Time & Date
Minimum magnitude displayed is 2.5.

Coastal Water Temperatures

Place Temperature

Stations

Nearby Weather Stations

Station Location Temp. Windchill Dew Point Humidity Wind Precip. Elev Updated Type
                   

Watches & Warnings

There are currently no watches in effect.